createdAt,value
2019-05-28T00:02:12.810Z,14.30
2019-05-28T00:04:42.263Z,14.40
2019-05-28T00:07:12.075Z,14.30
2019-05-28T00:09:43.692Z,14.30
2019-05-28T00:12:13.093Z,14.20
2019-05-28T00:14:44.433Z,14.20
2019-05-28T00:17:13.635Z,14.30
2019-05-28T00:19:43.674Z,14.30
2019-05-28T00:22:13.514Z,14.30
2019-05-28T00:24:45.504Z,14.40
2019-05-28T00:27:16.576Z,14.40
2019-05-28T00:29:48.096Z,14.40
2019-05-28T00:32:18.946Z,14.40
2019-05-28T00:34:48.545Z,14.40
2019-05-28T00:37:18.526Z,14.40
2019-05-28T00:39:48.896Z,14.50
2019-05-28T00:42:18.838Z,14.30
2019-05-28T00:44:48.279Z,14.20
2019-05-28T00:47:18.556Z,14.30
2019-05-28T00:49:49.746Z,14.30
2019-05-28T00:52:19.491Z,14.30
2019-05-28T00:54:52.219Z,14.30
2019-05-28T00:57:22.566Z,14.30
2019-05-28T00:59:57.014Z,14.20
2019-05-28T01:02:26.960Z,14.20
2019-05-28T01:04:56.390Z,14.20
2019-05-28T01:07:26.182Z,14.20
2019-05-28T01:09:56.052Z,14.10
2019-05-28T01:12:25.506Z,14.10
2019-05-28T01:14:55.235Z,14.10
2019-05-28T01:17:25.060Z,14.10
2019-05-28T01:19:56.565Z,14.10
2019-05-28T01:22:27.721Z,14.30
2019-05-28T01:24:58.199Z,14.30
2019-05-28T01:27:27.615Z,14.30
2019-05-28T01:30:00.414Z,14.30
2019-05-28T01:32:30.219Z,14.20
2019-05-28T01:34:59.696Z,14.20
2019-05-28T01:37:29.540Z,14.20
2019-05-28T01:39:59.331Z,14.40
2019-05-28T01:42:28.802Z,14.40
2019-05-28T01:44:58.253Z,14.30
2019-05-28T01:47:27.801Z,14.30
2019-05-28T01:49:57.244Z,14.20
2019-05-28T01:52:26.681Z,14.20
2019-05-28T01:54:56.472Z,14.30
2019-05-28T01:57:27.719Z,14.30
2019-05-28T01:59:57.829Z,14.30
2019-05-28T02:02:27.733Z,14.30
2019-05-28T02:04:57.430Z,14.30
2019-05-28T02:07:32.253Z,14.20
2019-05-28T02:10:01.701Z,14.30
2019-05-28T02:12:31.195Z,14.20
2019-05-28T02:15:00.916Z,14.10
2019-05-28T02:17:31.943Z,14.10
2019-05-28T02:20:02.752Z,14.00
2019-05-28T02:22:32.212Z,14.00
2019-05-28T02:25:02.082Z,13.90
2019-05-28T02:27:31.513Z,13.80
2019-05-28T02:30:01.029Z,13.80
2019-05-28T02:32:31.106Z,13.70
2019-05-28T02:35:00.601Z,13.70
2019-05-28T02:37:38.806Z,13.70
2019-05-28T02:40:13.081Z,13.70
2019-05-28T02:42:42.980Z,13.60
2019-05-28T02:45:14.203Z,13.50
2019-05-28T02:47:43.689Z,13.40
2019-05-28T02:50:14.448Z,13.40
2019-05-28T02:52:44.812Z,13.40
2019-05-28T02:55:14.880Z,13.40
2019-05-28T02:57:46.963Z,13.30
2019-05-28T03:00:20.470Z,13.30
2019-05-28T03:02:50.002Z,13.40
2019-05-28T03:05:19.744Z,13.50
2019-05-28T03:07:55.721Z,13.40
2019-05-28T03:10:59.887Z,13.40
2019-05-28T03:13:07.905Z,13.40
2019-05-28T03:15:43.383Z,13.30
2019-05-28T03:18:13.752Z,13.30
2019-05-28T03:20:50.616Z,13.30
2019-05-28T03:23:22.450Z,13.20
2019-05-28T03:25:52.560Z,13.30
2019-05-28T03:28:24.960Z,13.30
2019-05-28T03:30:54.397Z,13.20
2019-05-28T03:33:27.080Z,13.10
2019-05-28T03:35:59.133Z,13.10
2019-05-28T03:38:31.799Z,13.00
2019-05-28T03:41:02.268Z,13.10
2019-05-28T03:43:32.485Z,13.10
2019-05-28T03:46:03.384Z,13.10
2019-05-28T03:48:38.531Z,13.20
2019-05-28T03:51:08.360Z,13.20
2019-05-28T03:53:42.689Z,13.10
2019-05-28T03:56:13.391Z,13.10
2019-05-28T03:58:42.760Z,13.00
2019-05-28T04:01:12.700Z,13.10
2019-05-28T04:03:43.340Z,13.10
2019-05-28T04:06:13.842Z,13.20
2019-05-28T04:08:44.233Z,13.20
2019-05-28T04:11:14.157Z,13.20
2019-05-28T04:13:44.974Z,13.30
2019-05-28T04:16:17.464Z,13.30
2019-05-28T04:18:47.270Z,13.40
2019-05-28T04:21:18.204Z,13.30
2019-05-28T04:23:48.172Z,13.30
2019-05-28T04:26:24.576Z,13.30
2019-05-28T04:28:54.017Z,13.30
2019-05-28T04:31:24.095Z,13.30
2019-05-28T04:33:53.715Z,13.40
2019-05-28T04:36:23.140Z,13.30
2019-05-28T04:38:53.535Z,13.40
2019-05-28T04:41:23.156Z,13.30
2019-05-28T04:43:52.589Z,13.40
2019-05-28T04:46:27.466Z,13.50
2019-05-28T04:48:57.284Z,13.50
2019-05-28T04:51:27.761Z,13.60
2019-05-28T04:53:57.450Z,13.70
2019-05-28T04:56:28.885Z,13.60
2019-05-28T04:59:03.717Z,13.50
2019-05-28T05:01:32.005Z,13.50
2019-05-28T05:04:01.909Z,13.60
2019-05-28T05:06:32.628Z,13.50
2019-05-28T05:09:02.068Z,13.60
2019-05-28T05:11:31.642Z,13.60
2019-05-28T05:14:01.565Z,13.60
2019-05-28T05:16:31.009Z,13.80
2019-05-28T05:19:00.548Z,13.90
2019-05-28T05:21:31.130Z,14.00
2019-05-28T05:24:01.527Z,14.00
2019-05-28T05:26:31.910Z,13.90
2019-05-28T05:29:01.364Z,14.00
2019-05-28T05:31:30.912Z,14.00
2019-05-28T05:34:00.395Z,14.00
2019-05-28T05:36:29.853Z,14.00
2019-05-28T05:39:05.574Z,14.20
2019-05-28T05:41:36.521Z,14.20
2019-05-28T05:44:06.897Z,14.20
2019-05-28T05:46:39.475Z,14.10
2019-05-28T05:49:09.413Z,14.00
2019-05-28T05:51:48.092Z,14.10
2019-05-28T05:54:18.264Z,14.20
2019-05-28T05:56:50.321Z,14.00
2019-05-28T05:59:19.748Z,14.00
2019-05-28T06:01:49.197Z,14.10
2019-05-28T06:04:18.711Z,14.10
2019-05-28T06:06:48.176Z,14.10
2019-05-28T06:09:18.273Z,14.20
2019-05-28T06:11:53.589Z,14.10
2019-05-28T06:14:23.812Z,14.20
2019-05-28T06:16:53.286Z,14.20
2019-05-28T06:19:23.120Z,14.20
2019-05-28T06:21:52.552Z,14.30
2019-05-28T06:24:21.995Z,14.30
2019-05-28T06:26:52.212Z,14.40
2019-05-28T06:29:21.661Z,14.40
2019-05-28T06:31:51.294Z,14.40
2019-05-28T06:34:22.977Z,14.50
2019-05-28T06:36:53.892Z,14.50
2019-05-28T06:39:23.317Z,14.50
2019-05-28T06:41:53.192Z,14.50
2019-05-28T06:44:22.940Z,14.70
2019-05-28T06:46:54.384Z,14.80
2019-05-28T06:49:24.189Z,14.90
2019-05-28T06:51:53.625Z,15.10
2019-05-28T06:54:23.061Z,15.20
2019-05-28T06:56:54.148Z,15.40
2019-05-28T06:59:23.969Z,15.40
2019-05-28T07:01:55.297Z,15.50
2019-05-28T07:04:32.693Z,15.50
2019-05-28T07:06:59.126Z,15.50
2019-05-28T07:09:28.435Z,15.50
2019-05-28T07:12:01.355Z,15.60
2019-05-28T07:14:34.758Z,15.60
2019-05-28T07:17:04.917Z,15.60
2019-05-28T07:19:34.742Z,15.60
2019-05-28T07:22:04.192Z,15.70
2019-05-28T07:24:33.634Z,15.60
2019-05-28T07:27:04.196Z,15.60
2019-05-28T07:29:33.985Z,15.50
2019-05-28T07:32:03.500Z,15.50
2019-05-28T07:34:34.694Z,15.60
2019-05-28T07:37:08.507Z,15.60
2019-05-28T07:39:38.293Z,15.70
2019-05-28T07:42:08.256Z,15.80
2019-05-28T07:44:37.857Z,15.80
2019-05-28T07:47:12.549Z,15.80
2019-05-28T07:49:42.060Z,16.00
2019-05-28T07:52:11.562Z,16.00
2019-05-28T07:54:40.989Z,15.80
2019-05-28T07:57:14.551Z,15.70
2019-05-28T07:59:45.591Z,15.60
2019-05-28T08:02:16.260Z,15.70
2019-05-28T08:04:47.632Z,15.70
2019-05-28T08:07:18.270Z,15.70
2019-05-28T08:09:47.763Z,15.80
2019-05-28T08:12:19.964Z,15.80
2019-05-28T08:14:49.388Z,15.90
2019-05-28T08:17:19.783Z,16.00
2019-05-28T08:19:49.422Z,16.00
2019-05-28T08:22:19.460Z,16.00
2019-05-28T08:24:48.957Z,16.10
2019-05-28T08:27:19.344Z,16.20
2019-05-28T08:29:49.008Z,16.40
2019-05-28T08:32:18.571Z,16.60
2019-05-28T08:35:04.185Z,16.90
2019-05-28T08:37:20.469Z,17.00
2019-05-28T08:39:50.719Z,17.20
2019-05-28T08:42:21.576Z,17.40
2019-05-28T08:44:51.380Z,17.60
2019-05-28T08:47:21.704Z,17.80
2019-05-28T08:49:53.786Z,18.00
2019-05-28T08:52:25.548Z,18.20
2019-05-28T08:54:56.226Z,18.50
2019-05-28T08:57:25.721Z,18.70
2019-05-28T08:59:56.670Z,18.70
2019-05-28T09:02:28.289Z,18.60
2019-05-28T09:04:58.174Z,18.30
2019-05-28T09:07:31.790Z,18.20
2019-05-28T09:10:02.046Z,18.00
2019-05-28T09:12:34.074Z,17.90
2019-05-28T09:15:03.460Z,17.60
2019-05-28T09:17:32.906Z,17.40
2019-05-28T09:20:02.959Z,17.20
2019-05-28T09:22:32.394Z,17.20
2019-05-28T09:25:01.872Z,17.20
2019-05-28T09:27:32.581Z,17.20
2019-05-28T09:30:01.953Z,17.30
2019-05-28T09:32:32.425Z,17.30
2019-05-28T09:35:03.191Z,17.30
2019-05-28T09:37:33.061Z,17.20
2019-05-28T09:40:03.420Z,16.80
2019-05-28T09:42:33.202Z,16.40
2019-05-28T09:45:19.374Z,16.00
2019-05-28T09:47:33.854Z,15.80
2019-05-28T09:50:04.497Z,15.60
2019-05-28T09:52:52.991Z,15.50
2019-05-28T09:55:09.638Z,15.50
2019-05-28T09:57:47.266Z,15.60
2019-05-28T10:00:15.233Z,15.70
2019-05-28T10:02:45.352Z,15.80
2019-05-28T10:05:17.893Z,16.00
2019-05-28T10:07:47.737Z,16.10
2019-05-28T10:10:18.872Z,16.30
2019-05-28T10:12:52.615Z,16.40
2019-05-28T10:15:22.702Z,16.60
2019-05-28T10:17:57.062Z,16.70
2019-05-28T10:20:29.680Z,16.80
2019-05-28T10:23:01.841Z,17.00
2019-05-28T10:25:31.240Z,17.10
2019-05-28T10:28:02.395Z,17.20
2019-05-28T10:30:32.009Z,17.20
2019-05-28T10:33:01.465Z,17.20
2019-05-28T10:35:34.051Z,17.20
2019-05-28T10:38:04.126Z,17.20
2019-05-28T10:40:34.637Z,17.20
2019-05-28T10:43:07.559Z,17.10
2019-05-28T10:45:37.878Z,17.10
2019-05-28T10:48:07.986Z,17.10
2019-05-28T10:50:37.459Z,17.00
2019-05-28T10:53:07.727Z,17.00
2019-05-28T10:55:38.325Z,16.80
2019-05-28T10:58:08.402Z,16.60
2019-05-28T11:00:38.146Z,16.40
2019-05-28T11:03:09.587Z,16.30
2019-05-28T11:05:39.317Z,16.40
2019-05-28T11:08:10.573Z,16.50
2019-05-28T11:10:42.070Z,16.60
2019-05-28T11:13:13.566Z,16.80
2019-05-28T11:15:48.156Z,16.80
2019-05-28T11:18:19.030Z,17.00
2019-05-28T11:20:49.912Z,17.10
2019-05-28T11:23:21.364Z,17.10
2019-05-28T11:25:51.240Z,17.00
2019-05-28T11:28:22.204Z,16.90
2019-05-28T11:30:51.672Z,17.10
2019-05-28T11:33:21.890Z,17.30
2019-05-28T11:35:52.244Z,17.60
2019-05-28T11:38:21.873Z,17.60
2019-05-28T11:40:51.305Z,17.50
2019-05-28T11:43:21.921Z,17.50
2019-05-28T11:45:51.406Z,17.50
2019-05-28T11:48:21.210Z,17.60
2019-05-28T11:50:51.077Z,17.60
2019-05-28T11:53:21.514Z,17.60
2019-05-28T11:55:52.304Z,17.70
2019-05-28T11:58:23.600Z,17.20
2019-05-28T12:00:58.709Z,17.20
2019-05-28T12:03:28.488Z,17.00
2019-05-28T12:06:00.034Z,16.80
2019-05-28T12:08:31.240Z,16.60
2019-05-28T12:11:01.466Z,16.60
2019-05-28T12:13:32.079Z,16.30
2019-05-28T12:16:03.493Z,16.40
2019-05-28T12:18:33.525Z,16.30
2019-05-28T12:21:03.325Z,16.40
2019-05-28T12:23:33.560Z,16.60
2019-05-28T12:26:08.186Z,16.50
2019-05-28T12:28:38.712Z,16.60
2019-05-28T12:31:08.239Z,16.70
2019-05-28T12:33:40.130Z,16.80
2019-05-28T12:36:13.631Z,16.80
2019-05-28T12:38:43.020Z,16.80
2019-05-28T12:41:13.709Z,16.80
2019-05-28T12:43:50.496Z,16.80
2019-05-28T12:46:21.745Z,16.70
2019-05-28T12:48:53.105Z,16.80
2019-05-28T12:51:27.390Z,17.00
2019-05-28T12:53:59.224Z,17.10
2019-05-28T12:56:30.836Z,16.90
2019-05-28T12:59:00.910Z,16.90
2019-05-28T13:01:32.996Z,16.90
2019-05-28T13:04:07.006Z,16.80
2019-05-28T13:06:36.789Z,16.80
2019-05-28T13:09:08.417Z,16.80
2019-05-28T13:11:40.371Z,16.60
2019-05-28T13:14:11.843Z,16.70
2019-05-28T13:16:41.270Z,16.80
2019-05-28T13:19:10.849Z,16.70
2019-05-28T13:21:40.795Z,16.70
2019-05-28T13:24:10.286Z,16.50
2019-05-28T13:26:40.596Z,16.70
2019-05-28T13:29:12.217Z,16.80
2019-05-28T13:31:43.274Z,16.90
2019-05-28T13:34:13.253Z,17.10
2019-05-28T13:36:50.998Z,17.00
2019-05-28T13:39:20.850Z,17.00
2019-05-28T13:41:50.284Z,16.80
2019-05-28T13:44:20.414Z,16.60
2019-05-28T13:46:51.903Z,15.60
2019-05-28T13:49:21.419Z,14.70
2019-05-28T13:51:53.024Z,14.20
2019-05-28T13:54:25.565Z,13.80
2019-05-28T13:56:58.016Z,13.60
2019-05-28T13:59:32.272Z,13.60
2019-05-28T14:02:05.588Z,13.60
2019-05-28T14:04:35.262Z,13.80
2019-05-28T14:07:05.575Z,13.80
2019-05-28T14:09:40.213Z,13.80
2019-05-28T14:12:10.385Z,13.70
2019-05-28T14:14:46.338Z,13.50
2019-05-28T14:17:16.276Z,13.50
2019-05-28T14:19:46.487Z,13.80
2019-05-28T14:22:33.015Z,13.90
2019-05-28T14:24:49.543Z,14.00
2019-05-28T14:27:20.895Z,14.10
2019-05-28T14:29:56.603Z,14.20
2019-05-28T14:32:25.992Z,14.10
2019-05-28T14:34:56.429Z,14.20
2019-05-28T14:37:26.528Z,14.20
2019-05-28T14:39:58.689Z,14.10
2019-05-28T14:42:31.819Z,14.10
2019-05-28T14:45:02.195Z,14.20
2019-05-28T14:47:33.594Z,14.30
2019-05-28T14:50:07.398Z,14.20
2019-05-28T14:52:43.264Z,14.30
2019-05-28T14:55:13.562Z,14.20
2019-05-28T14:57:44.229Z,14.10
2019-05-28T15:00:18.803Z,14.00
2019-05-28T15:02:49.515Z,14.10
2019-05-28T15:05:25.115Z,14.00
2019-05-28T15:07:55.193Z,14.10
2019-05-28T15:10:26.694Z,14.20
2019-05-28T15:13:01.030Z,14.30
2019-05-28T15:15:36.222Z,14.30
2019-05-28T15:18:11.417Z,14.50
2019-05-28T15:20:41.692Z,14.70
2019-05-28T15:23:11.776Z,14.60
2019-05-28T15:25:41.200Z,14.50
2019-05-28T15:28:17.143Z,14.50
2019-05-28T15:30:52.216Z,14.50
2019-05-28T15:33:29.229Z,14.60
2019-05-28T15:36:03.503Z,14.60
2019-05-28T15:38:36.656Z,14.50
2019-05-28T15:41:11.048Z,14.50
2019-05-28T15:43:40.438Z,14.50
2019-05-28T15:46:16.826Z,14.50
2019-05-28T15:48:48.811Z,14.40
2019-05-28T15:51:19.746Z,14.40
2019-05-28T15:53:50.683Z,14.30
2019-05-28T15:56:21.454Z,14.30
2019-05-28T15:58:53.196Z,14.30
2019-05-28T16:01:23.393Z,14.30
2019-05-28T16:03:56.401Z,14.20
2019-05-28T16:06:33.531Z,14.30
2019-05-28T16:09:06.209Z,14.20
2019-05-28T16:11:38.320Z,14.10
2019-05-28T16:14:08.947Z,14.10
2019-05-28T16:16:43.295Z,14.20
2019-05-28T16:19:14.717Z,14.00
2019-05-28T16:21:44.089Z,13.90
2019-05-28T16:24:14.824Z,13.80
2019-05-28T16:26:44.341Z,13.90
2019-05-28T16:29:15.079Z,13.90
2019-05-28T16:31:46.707Z,13.90
2019-05-28T16:34:19.447Z,14.00
2019-05-28T16:36:51.026Z,14.00
2019-05-28T16:39:20.718Z,14.00
2019-05-28T16:41:52.492Z,14.10
2019-05-28T16:44:24.631Z,14.00
2019-05-28T16:47:16.081Z,14.00
2019-05-28T16:49:33.223Z,14.00
2019-05-28T16:52:09.275Z,14.10
2019-05-28T16:54:39.920Z,14.10
2019-05-28T16:57:09.361Z,14.20
2019-05-28T16:59:40.023Z,14.10
2019-05-28T17:02:09.572Z,14.30
2019-05-28T17:04:39.012Z,14.30
2019-05-28T17:07:09.513Z,14.30
2019-05-28T17:09:40.228Z,14.40
2019-05-28T17:12:10.106Z,14.40
2019-05-28T17:14:39.638Z,14.50
2019-05-28T17:17:09.800Z,14.50
2019-05-28T17:19:39.241Z,14.60
2019-05-28T17:22:10.387Z,14.50
2019-05-28T17:24:39.853Z,14.50
2019-05-28T17:27:09.755Z,14.40
2019-05-28T17:29:39.893Z,14.40
2019-05-28T17:32:09.964Z,14.40
2019-05-28T17:34:39.401Z,14.30
2019-05-28T17:37:09.092Z,14.30
2019-05-28T17:39:40.730Z,14.30
2019-05-28T17:42:10.156Z,14.30
2019-05-28T17:44:39.586Z,14.30
2019-05-28T17:47:09.053Z,14.10
2019-05-28T17:49:38.641Z,14.00
2019-05-28T17:52:08.127Z,14.00
2019-05-28T17:54:37.616Z,14.00
2019-05-28T17:57:15.528Z,13.90
2019-05-28T17:59:44.987Z,14.00
2019-05-28T18:02:15.789Z,13.80
2019-05-28T18:04:45.398Z,13.60
2019-05-28T18:07:16.324Z,13.60
2019-05-28T18:09:46.073Z,13.50
2019-05-28T18:12:17.196Z,13.40
2019-05-28T18:14:46.633Z,13.20
2019-05-28T18:17:24.882Z,13.10
2019-05-28T18:20:00.125Z,13.00
2019-05-28T18:22:32.922Z,13.00
2019-05-28T18:25:04.221Z,13.00
2019-05-28T18:27:39.147Z,12.80
2019-05-28T18:30:10.547Z,12.80
2019-05-28T18:32:41.654Z,12.70
2019-05-28T18:35:12.022Z,12.60
2019-05-28T18:37:41.544Z,12.50
2019-05-28T18:40:15.800Z,12.50
2019-05-28T18:42:45.169Z,12.50
2019-05-28T18:45:18.591Z,12.50
2019-05-28T18:47:50.581Z,12.50
2019-05-28T18:50:20.006Z,12.50
2019-05-28T18:52:50.423Z,12.40
2019-05-28T18:55:23.465Z,12.40
2019-05-28T18:57:52.078Z,12.40
2019-05-28T19:00:21.828Z,12.30
2019-05-28T19:02:51.566Z,12.30
2019-05-28T19:05:21.128Z,12.30
2019-05-28T19:07:50.608Z,12.30
2019-05-28T19:10:21.696Z,12.30
2019-05-28T19:12:54.430Z,12.30
2019-05-28T19:15:23.943Z,12.30
2019-05-28T19:17:54.066Z,12.40
2019-05-28T19:20:23.802Z,12.30
2019-05-28T19:22:54.019Z,12.20
2019-05-28T19:25:23.839Z,12.10
2019-05-28T19:27:53.975Z,12.10
2019-05-28T19:30:33.736Z,12.00
2019-05-28T19:33:06.344Z,12.00
2019-05-28T19:35:36.117Z,11.90
2019-05-28T19:38:11.685Z,12.00
2019-05-28T19:40:44.800Z,12.00
2019-05-28T19:43:19.013Z,12.00
2019-05-28T19:45:48.624Z,12.00
2019-05-28T19:48:19.099Z,11.90
2019-05-28T19:50:49.188Z,11.90
2019-05-28T19:53:18.984Z,12.00
2019-05-28T19:55:48.440Z,12.00
2019-05-28T19:58:18.221Z,12.00
2019-05-28T20:00:47.741Z,12.00
2019-05-28T20:03:18.892Z,12.00
2019-05-28T20:05:48.325Z,12.00
2019-05-28T20:08:19.800Z,12.00
2019-05-28T20:10:50.762Z,12.10
2019-05-28T20:13:21.089Z,12.20
2019-05-28T20:15:50.484Z,12.30
2019-05-28T20:18:26.587Z,12.20
2019-05-28T20:20:51.663Z,12.30
2019-05-28T20:23:22.644Z,12.30
2019-05-28T20:25:54.434Z,12.40
2019-05-28T20:28:25.757Z,12.40
2019-05-28T20:30:55.365Z,12.50
2019-05-28T20:33:25.121Z,12.40
2019-05-28T20:35:57.041Z,12.30
2019-05-28T20:38:27.877Z,12.30
2019-05-28T20:40:58.390Z,12.20
2019-05-28T20:43:28.328Z,12.20
2019-05-28T20:45:58.245Z,12.30
2019-05-28T20:48:28.291Z,12.30
2019-05-28T20:51:08.801Z,12.30
2019-05-28T20:53:36.377Z,12.30
2019-05-28T20:56:07.637Z,12.10
2019-05-28T20:58:40.541Z,12.10
2019-05-28T21:01:08.821Z,12.10
2019-05-28T21:03:39.177Z,12.10
2019-05-28T21:06:10.220Z,12.10
2019-05-28T21:08:42.069Z,11.90
2019-05-28T21:11:12.498Z,11.70
2019-05-28T21:13:43.233Z,11.70
2019-05-28T21:16:12.681Z,11.60
2019-05-28T21:18:42.681Z,11.60
2019-05-28T21:21:14.104Z,11.40
2019-05-28T21:23:43.744Z,11.40
2019-05-28T21:26:13.618Z,11.30
2019-05-28T21:28:43.883Z,11.10
2019-05-28T21:31:13.265Z,11.00
2019-05-28T21:33:50.707Z,10.90
2019-05-28T21:36:25.388Z,10.80
2019-05-28T21:38:57.410Z,10.80
2019-05-28T21:41:28.637Z,10.80
2019-05-28T21:44:00.090Z,10.80
2019-05-28T21:46:36.465Z,10.80
2019-05-28T21:49:07.558Z,10.70
2019-05-28T21:51:36.956Z,10.70
2019-05-28T21:54:12.893Z,10.70
2019-05-28T21:56:46.617Z,10.70
2019-05-28T21:59:21.265Z,10.70
2019-05-28T22:01:52.113Z,10.80
2019-05-28T22:04:23.192Z,10.80
2019-05-28T22:06:52.592Z,10.80
2019-05-28T22:09:24.819Z,10.80
2019-05-28T22:11:55.466Z,10.80
2019-05-28T22:14:28.628Z,10.90
2019-05-28T22:16:59.397Z,10.90
2019-05-28T22:19:39.354Z,10.90
2019-05-28T22:22:11.354Z,10.90
2019-05-28T22:24:41.170Z,11.00
2019-05-28T22:27:10.938Z,11.00
2019-05-28T22:29:41.784Z,10.90
2019-05-28T22:32:11.539Z,10.90
2019-05-28T22:34:41.293Z,10.90
2019-05-28T22:37:10.731Z,10.90
2019-05-28T22:39:41.660Z,10.90
2019-05-28T22:42:14.347Z,10.90
2019-05-28T22:44:44.220Z,10.90
2019-05-28T22:47:14.881Z,10.80
2019-05-28T22:49:44.305Z,10.90
2019-05-28T22:52:15.827Z,10.80
2019-05-28T22:54:45.229Z,10.80
2019-05-28T22:57:16.025Z,10.80
2019-05-28T22:59:45.498Z,10.90
2019-05-28T23:02:17.251Z,10.80
2019-05-28T23:04:47.017Z,10.80
2019-05-28T23:07:19.493Z,10.90
2019-05-28T23:09:49.555Z,10.90
2019-05-28T23:12:19.522Z,10.90
2019-05-28T23:14:50.968Z,10.80
2019-05-28T23:17:20.340Z,10.80
2019-05-28T23:19:49.757Z,10.80
2019-05-28T23:22:20.140Z,10.80
2019-05-28T23:24:49.921Z,10.70
2019-05-28T23:27:24.886Z,10.70
2019-05-28T23:29:54.325Z,10.70
2019-05-28T23:32:25.610Z,10.60
2019-05-28T23:34:56.390Z,10.70
2019-05-28T23:37:32.769Z,10.70
2019-05-28T23:40:03.118Z,10.70
2019-05-28T23:42:33.324Z,10.70
2019-05-28T23:45:03.928Z,10.70
2019-05-28T23:47:33.584Z,10.70
2019-05-28T23:50:04.361Z,10.70
2019-05-28T23:52:33.708Z,10.70
2019-05-28T23:55:03.112Z,10.60
2019-05-28T23:57:33.677Z,10.60
